createdAt,value
2018-03-31T00:00:51.454Z,1.27
2018-03-31T00:03:18.475Z,1.50
2018-03-31T00:05:45.490Z,1.40
2018-03-31T00:08:13.255Z,1.53
2018-03-31T00:10:41.039Z,1.27
2018-03-31T00:13:08.054Z,1.37
2018-03-31T00:15:35.078Z,1.57
2018-03-31T00:18:02.078Z,1.47
2018-03-31T00:20:29.102Z,1.10
2018-03-31T00:22:56.870Z,1.40
2018-03-31T00:25:24.654Z,1.10
2018-03-31T00:27:51.668Z,0.80
2018-03-31T00:30:19.570Z,1.10
2018-03-31T00:32:46.579Z,1.20
2018-03-31T00:35:13.662Z,1.10
2018-03-31T00:37:40.667Z,1.30
2018-03-31T00:40:09.204Z,1.00
2018-03-31T00:42:36.219Z,1.30
2018-03-31T00:45:04.007Z,0.90
2018-03-31T00:47:31.010Z,0.80
2018-03-31T00:49:58.094Z,0.80
2018-03-31T00:52:25.099Z,0.70
2018-03-31T00:54:52.192Z,0.80
2018-03-31T00:57:19.211Z,0.83
2018-03-31T00:59:46.983Z,1.10
2018-03-31T01:02:14.767Z,0.90
2018-03-31T01:04:41.771Z,1.10
2018-03-31T01:07:08.803Z,0.70
2018-03-31T01:09:35.907Z,0.70
2018-03-31T01:12:02.931Z,0.50
2018-03-31T01:14:30.695Z,0.67
2018-03-31T01:16:58.483Z,0.60
2018-03-31T01:19:25.491Z,0.43
2018-03-31T01:21:52.515Z,0.50
2018-03-31T01:24:19.519Z,0.30
2018-03-31T01:26:46.546Z,0.40
2018-03-31T01:29:14.314Z,0.30
2018-03-31T01:31:42.099Z,0.40
2018-03-31T01:34:09.102Z,0.40
2018-03-31T01:36:36.146Z,0.47
2018-03-31T01:39:03.148Z,0.40
2018-03-31T01:41:30.171Z,0.43
2018-03-31T01:43:57.939Z,0.43
2018-03-31T01:46:25.727Z,0.40
2018-03-31T01:51:33.367Z,0.30
2018-03-31T01:54:00.374Z,0.40
2018-03-31T01:56:27.401Z,0.40
2018-03-31T01:58:55.171Z,0.60
2018-03-31T02:01:22.209Z,0.30
2018-03-31T02:03:49.978Z,0.30
2018-03-31T02:06:17.764Z,0.40
2018-03-31T02:08:44.817Z,0.37
2018-03-31T02:11:11.842Z,0.77
2018-03-31T02:13:39.614Z,0.60
2018-03-31T02:16:06.642Z,0.30
2018-03-31T02:18:34.415Z,0.40
2018-03-31T02:21:02.207Z,0.30
2018-03-31T02:23:29.214Z,0.30
2018-03-31T02:25:57.002Z,0.30
2018-03-31T02:28:24.010Z,0.30
2018-03-31T02:30:51.043Z,0.30
2018-03-31T02:33:18.065Z,0.30
2018-03-31T02:35:45.090Z,0.40
2018-03-31T02:38:12.091Z,0.40
2018-03-31T02:40:39.105Z,0.40
2018-03-31T02:43:06.112Z,0.30
2018-03-31T02:45:33.899Z,0.37
2018-03-31T02:48:00.909Z,0.40
2018-03-31T02:50:28.678Z,0.40
2018-03-31T02:52:56.466Z,0.40
2018-03-31T02:55:23.474Z,0.40
2018-03-31T02:57:50.496Z,0.40
2018-03-31T03:00:17.497Z,0.60
2018-03-31T03:02:44.555Z,0.47
2018-03-31T03:05:11.564Z,0.40
2018-03-31T03:07:38.594Z,0.30
2018-03-31T03:10:05.694Z,0.40
2018-03-31T03:12:32.730Z,0.30
2018-03-31T03:14:59.739Z,0.40
2018-03-31T03:17:27.552Z,0.40
2018-03-31T03:19:54.554Z,0.40
2018-03-31T03:22:21.575Z,0.40
2018-03-31T03:24:48.578Z,0.30
2018-03-31T03:27:16.368Z,0.60
2018-03-31T03:29:43.379Z,0.40
2018-03-31T03:32:11.172Z,0.40
2018-03-31T03:34:38.174Z,0.40
2018-03-31T03:37:05.195Z,0.40
2018-03-31T03:39:32.203Z,0.40
2018-03-31T03:41:59.251Z,0.43
2018-03-31T03:44:26.254Z,0.60
2018-03-31T03:46:53.274Z,0.73
2018-03-31T03:49:20.279Z,0.50
2018-03-31T03:51:48.068Z,0.40
2018-03-31T03:54:15.076Z,0.57
2018-03-31T03:56:42.866Z,0.80
2018-03-31T03:59:09.869Z,0.50
2018-03-31T04:01:36.886Z,0.60
2018-03-31T04:04:03.900Z,0.40
2018-03-31T04:06:30.926Z,0.60
2018-03-31T04:08:58.694Z,0.50
2018-03-31T04:11:26.479Z,0.50
2018-03-31T04:13:53.482Z,0.50
2018-03-31T04:16:20.566Z,0.70
2018-03-31T04:18:47.578Z,0.60
2018-03-31T04:21:14.611Z,0.70
2018-03-31T04:23:41.710Z,0.80
2018-03-31T04:26:08.742Z,0.57
2018-03-31T04:28:36.515Z,0.70
2018-03-31T04:31:04.308Z,0.50
2018-03-31T04:33:31.313Z,0.80
2018-03-31T04:35:59.086Z,0.53
2018-03-31T04:38:26.870Z,0.70
2018-03-31T04:40:53.870Z,0.57
2018-03-31T04:43:20.971Z,0.63
2018-03-31T04:45:47.975Z,0.50
2018-03-31T04:48:15.777Z,0.70
2018-03-31T04:50:42.788Z,0.80
2018-03-31T04:53:10.574Z,1.00
2018-03-31T04:55:37.583Z,0.70
2018-03-31T04:58:04.698Z,0.77
2018-03-31T05:00:31.695Z,0.60
2018-03-31T05:02:59.483Z,1.00
2018-03-31T05:05:26.488Z,0.60
2018-03-31T05:07:53.511Z,0.60
2018-03-31T05:10:20.519Z,0.60
2018-03-31T05:12:47.539Z,0.67
2018-03-31T05:15:14.547Z,0.80
2018-03-31T05:17:41.566Z,0.60
2018-03-31T05:20:08.573Z,0.47
2018-03-31T05:22:35.601Z,0.70
2018-03-31T05:25:02.612Z,0.77
2018-03-31T05:27:29.635Z,0.70
2018-03-31T05:29:57.401Z,0.60
2018-03-31T05:32:24.430Z,0.60
2018-03-31T05:34:52.203Z,0.50
2018-03-31T05:37:19.992Z,0.73
2018-03-31T05:39:47.002Z,0.60
2018-03-31T05:42:14.079Z,0.60
2018-03-31T05:44:41.054Z,0.60
2018-03-31T05:47:08.079Z,0.60
2018-03-31T05:49:35.088Z,0.50
2018-03-31T05:52:02.118Z,0.60
2018-03-31T05:54:29.135Z,0.60
2018-03-31T05:56:56.170Z,0.50
2018-03-31T05:59:23.190Z,0.53
2018-03-31T06:01:50.974Z,0.60
2018-03-31T06:04:17.985Z,0.50
2018-03-31T06:06:45.019Z,0.70
2018-03-31T06:09:12.030Z,0.50
2018-03-31T06:11:39.054Z,0.43
2018-03-31T06:14:06.062Z,0.50
2018-03-31T06:16:33.091Z,0.60
2018-03-31T06:19:00.110Z,0.50
2018-03-31T06:21:27.122Z,0.30
2018-03-31T06:23:54.910Z,0.40
2018-03-31T06:26:21.919Z,0.30
2018-03-31T06:28:48.938Z,1.23
2018-03-31T06:31:16.711Z,2.97
2018-03-31T06:33:43.735Z,1.77
2018-03-31T06:36:10.742Z,1.30
2018-03-31T06:38:38.526Z,7.17
2018-03-31T06:41:05.552Z,16.47
2018-03-31T06:43:33.340Z,3.77
2018-03-31T06:46:00.346Z,2.00
2018-03-31T06:48:27.370Z,0.90
2018-03-31T06:50:54.379Z,0.90
2018-03-31T06:53:21.402Z,4.00
2018-03-31T06:55:49.179Z,16.70
2018-03-31T06:58:16.207Z,14.23
2018-03-31T07:00:43.980Z,5.50
2018-03-31T07:03:11.762Z,1.97
2018-03-31T07:05:38.771Z,0.60
2018-03-31T07:08:06.571Z,0.90
2018-03-31T07:10:33.574Z,0.70
2018-03-31T07:13:00.601Z,0.70
2018-03-31T07:15:27.662Z,0.70
2018-03-31T07:17:54.647Z,0.70
2018-03-31T07:20:21.647Z,0.77
2018-03-31T07:22:48.671Z,1.30
2018-03-31T07:25:15.674Z,1.30
2018-03-31T07:27:43.462Z,2.23
2018-03-31T07:30:10.466Z,1.80
2018-03-31T07:32:37.486Z,1.30
2018-03-31T07:35:04.490Z,1.37
2018-03-31T07:37:31.515Z,1.33
2018-03-31T07:39:59.288Z,1.50
2018-03-31T07:42:26.331Z,1.77
2018-03-31T07:44:54.135Z,1.63
2018-03-31T07:47:21.155Z,1.80
2018-03-31T07:49:48.931Z,1.77
2018-03-31T07:52:15.959Z,1.83
2018-03-31T07:54:43.727Z,1.90
2018-03-31T07:57:11.517Z,1.93
2018-03-31T07:59:38.529Z,2.40
2018-03-31T08:02:06.321Z,2.53
2018-03-31T08:04:33.340Z,2.73
2018-03-31T08:07:01.139Z,3.20
2018-03-31T08:09:28.143Z,2.20
2018-03-31T08:11:55.142Z,2.17
2018-03-31T08:14:22.164Z,1.40
2018-03-31T08:16:49.174Z,1.30
2018-03-31T08:19:16.201Z,1.50
2018-03-31T08:21:43.203Z,1.50
2018-03-31T08:24:10.231Z,1.10
2018-03-31T08:26:38.007Z,1.00
2018-03-31T08:29:05.895Z,1.20
2018-03-31T08:31:32.901Z,1.20
2018-03-31T08:33:59.923Z,1.30
2018-03-31T08:36:26.934Z,2.00
2018-03-31T08:38:53.958Z,1.40
2018-03-31T08:41:21.731Z,1.60
2018-03-31T08:43:48.755Z,1.77
2018-03-31T08:46:16.531Z,1.40
2018-03-31T08:48:43.557Z,1.23
2018-03-31T08:51:10.568Z,1.50
2018-03-31T08:53:37.589Z,1.53
2018-03-31T08:56:04.599Z,1.50
2018-03-31T08:58:31.627Z,1.30
2018-03-31T09:00:58.637Z,1.90
2018-03-31T09:03:25.659Z,1.30
2018-03-31T09:05:52.665Z,1.50
2018-03-31T09:08:19.691Z,2.53
2018-03-31T09:10:46.694Z,1.97
2018-03-31T09:13:14.483Z,2.00
2018-03-31T09:15:41.495Z,2.20
2018-03-31T09:18:09.283Z,1.80
2018-03-31T09:20:36.287Z,2.03
2018-03-31T09:23:03.325Z,2.40
2018-03-31T09:25:30.343Z,1.70
2018-03-31T09:27:57.362Z,1.97
2018-03-31T09:30:24.371Z,1.93
2018-03-31T09:32:51.392Z,2.20
2018-03-31T09:35:18.399Z,1.90
2018-03-31T09:37:46.185Z,1.90
2018-03-31T09:40:13.195Z,2.30
2018-03-31T09:42:40.991Z,2.53
2018-03-31T09:45:07.995Z,1.90
2018-03-31T09:47:35.018Z,2.40
2018-03-31T09:50:02.022Z,1.90
2018-03-31T09:52:29.056Z,2.17
2018-03-31T09:54:56.835Z,2.03
2018-03-31T09:57:23.843Z,2.57
2018-03-31T09:59:50.862Z,1.83
2018-03-31T10:02:17.880Z,2.03
2018-03-31T10:04:44.910Z,2.40
2018-03-31T10:07:11.918Z,2.00
2018-03-31T10:09:38.950Z,2.30
2018-03-31T10:12:05.955Z,2.43
2018-03-31T10:14:32.982Z,2.30
2018-03-31T10:17:00.754Z,2.60
2018-03-31T10:19:28.544Z,2.40
2018-03-31T10:21:55.546Z,3.03
2018-03-31T10:24:22.897Z,3.30
2018-03-31T10:26:49.904Z,2.87
2018-03-31T10:29:16.987Z,3.10
2018-03-31T10:31:43.946Z,3.60
2018-03-31T10:34:12.060Z,3.53
2018-03-31T10:36:39.062Z,3.33
2018-03-31T10:39:06.851Z,3.03
2018-03-31T10:41:33.859Z,2.83
2018-03-31T10:44:00.894Z,3.10
2018-03-31T10:46:27.898Z,3.27
2018-03-31T10:48:55.207Z,3.30
2018-03-31T10:51:22.211Z,2.90
2018-03-31T10:53:49.234Z,3.80
2018-03-31T10:56:16.247Z,3.30
2018-03-31T10:58:43.274Z,3.07
2018-03-31T11:01:10.284Z,3.30
2018-03-31T11:03:37.690Z,3.50
2018-03-31T11:06:04.698Z,3.53
2018-03-31T11:08:31.723Z,3.70
2018-03-31T11:10:58.732Z,3.10
2018-03-31T11:13:25.755Z,2.87
2018-03-31T11:15:52.759Z,3.00
2018-03-31T11:18:20.547Z,3.50
2018-03-31T11:20:47.559Z,3.70
2018-03-31T11:23:15.345Z,2.83
2018-03-31T11:25:42.350Z,3.80
2018-03-31T11:28:09.382Z,3.50
2018-03-31T11:30:36.396Z,3.40
2018-03-31T11:33:03.419Z,3.13
2018-03-31T11:35:31.198Z,4.00
2018-03-31T11:37:58.239Z,3.80
2018-03-31T11:40:25.243Z,3.73
2018-03-31T11:42:52.246Z,3.33
2018-03-31T11:45:19.267Z,3.20
2018-03-31T11:47:47.035Z,3.53
2018-03-31T11:50:14.819Z,3.50
2018-03-31T11:52:41.823Z,3.83
2018-03-31T11:55:09.616Z,3.83
2018-03-31T11:57:36.623Z,4.17
2018-03-31T12:00:03.651Z,4.37
2018-03-31T12:02:30.654Z,4.60
2018-03-31T12:04:57.679Z,4.50
2018-03-31T12:07:25.450Z,4.37
2018-03-31T12:09:53.234Z,4.90
2018-03-31T12:12:20.238Z,4.70
2018-03-31T12:14:47.265Z,4.80
2018-03-31T12:17:14.275Z,4.80
2018-03-31T12:19:41.298Z,4.60
2018-03-31T12:22:09.070Z,3.90
2018-03-31T12:24:36.861Z,4.00
2018-03-31T12:27:03.907Z,4.00
2018-03-31T12:29:30.910Z,3.90
2018-03-31T12:31:57.918Z,4.53
2018-03-31T12:34:24.947Z,4.20
2018-03-31T12:36:51.955Z,4.93
2018-03-31T12:39:19.752Z,4.57
2018-03-31T12:41:46.762Z,4.50
2018-03-31T12:44:14.551Z,4.17
2018-03-31T12:46:41.554Z,4.37
2018-03-31T12:49:08.575Z,4.47
2018-03-31T12:51:35.578Z,4.53
2018-03-31T12:54:03.362Z,4.07
2018-03-31T12:56:30.779Z,4.90
2018-03-31T12:58:57.811Z,4.20
2018-03-31T13:01:24.819Z,4.50
2018-03-31T13:03:51.844Z,4.80
2018-03-31T13:06:19.614Z,4.20
2018-03-31T13:08:46.638Z,4.70
2018-03-31T13:11:14.407Z,4.17
2018-03-31T13:13:42.194Z,4.87
2018-03-31T13:16:09.198Z,4.73
2018-03-31T13:18:36.224Z,3.93
2018-03-31T13:21:03.239Z,4.47
2018-03-31T13:23:30.266Z,4.60
2018-03-31T13:25:58.035Z,3.87
2018-03-31T13:28:25.038Z,4.67
2018-03-31T13:30:52.067Z,4.17
2018-03-31T13:33:19.071Z,4.40
2018-03-31T13:35:46.857Z,3.77
2018-03-31T13:38:13.875Z,4.23
2018-03-31T13:40:41.667Z,4.07
2018-03-31T13:43:08.674Z,3.93
2018-03-31T13:45:36.467Z,3.93
2018-03-31T13:48:03.470Z,3.80
2018-03-31T13:50:30.491Z,4.43
2018-03-31T13:52:57.503Z,4.30
2018-03-31T13:55:24.547Z,3.67
2018-03-31T13:57:51.559Z,4.00
2018-03-31T14:00:18.582Z,3.40
2018-03-31T14:02:45.591Z,3.97
2018-03-31T14:05:12.619Z,4.07
2018-03-31T14:07:40.436Z,4.93
2018-03-31T14:10:07.490Z,4.43
2018-03-31T14:12:34.474Z,6.43
2018-03-31T14:15:02.267Z,4.87
2018-03-31T14:17:29.271Z,4.00
2018-03-31T14:19:56.291Z,3.77
2018-03-31T14:22:23.562Z,4.17
2018-03-31T14:24:50.589Z,3.60
2018-03-31T14:27:17.594Z,3.80
2018-03-31T14:29:44.653Z,3.53
2018-03-31T14:32:11.655Z,4.37
2018-03-31T14:34:38.682Z,4.17
2018-03-31T14:37:05.692Z,4.40
2018-03-31T14:39:32.715Z,3.77
2018-03-31T14:42:00.491Z,3.73
2018-03-31T14:44:27.519Z,3.50
2018-03-31T14:46:55.295Z,3.80
2018-03-31T14:49:23.083Z,3.17
2018-03-31T14:51:50.091Z,3.77
2018-03-31T14:54:17.869Z,3.33
2018-03-31T14:56:45.655Z,4.00
2018-03-31T14:59:12.659Z,3.43
2018-03-31T15:01:39.691Z,3.40
2018-03-31T15:04:07.046Z,3.73
2018-03-31T15:06:34.082Z,3.83
2018-03-31T15:09:01.095Z,4.00
2018-03-31T15:11:28.119Z,3.70
2018-03-31T15:13:55.890Z,4.43
2018-03-31T15:16:23.687Z,3.73
2018-03-31T15:18:50.698Z,3.87
2018-03-31T15:21:18.487Z,4.30
2018-03-31T15:23:45.494Z,4.47
2018-03-31T15:26:13.336Z,4.33
2018-03-31T15:28:40.321Z,3.93
2018-03-31T15:31:07.346Z,3.87
2018-03-31T15:33:34.354Z,4.90
2018-03-31T15:36:01.375Z,3.70
2018-03-31T15:38:28.391Z,5.27
2018-03-31T15:40:56.182Z,5.20
2018-03-31T15:43:23.186Z,5.03
2018-03-31T15:45:50.208Z,4.67
2018-03-31T15:48:17.983Z,4.83
2018-03-31T15:50:45.007Z,5.47
2018-03-31T15:53:12.023Z,5.07
2018-03-31T15:55:39.815Z,4.80
2018-03-31T15:58:06.827Z,5.00
2018-03-31T16:00:34.615Z,4.97
2018-03-31T16:03:01.624Z,4.30
2018-03-31T16:05:29.413Z,5.40
2018-03-31T16:07:56.419Z,5.33
2018-03-31T16:10:23.443Z,6.00
2018-03-31T16:12:50.459Z,5.40
2018-03-31T16:15:17.482Z,5.30
2018-03-31T16:17:45.259Z,5.87
2018-03-31T16:20:13.047Z,5.63
2018-03-31T16:22:40.051Z,5.43
2018-03-31T16:25:07.872Z,6.10
2018-03-31T16:27:34.866Z,5.73
2018-03-31T16:30:02.640Z,6.03
2018-03-31T16:32:30.431Z,6.87
2018-03-31T16:34:57.434Z,6.43
2018-03-31T16:37:24.779Z,7.20
2018-03-31T16:39:51.778Z,6.20
2018-03-31T16:42:18.802Z,6.87
2018-03-31T16:44:46.580Z,6.10
2018-03-31T16:47:13.602Z,7.00
2018-03-31T16:49:41.375Z,7.03
2018-03-31T16:52:09.172Z,6.57
2018-03-31T16:54:36.178Z,5.93
2018-03-31T16:57:03.969Z,5.80
2018-03-31T16:59:30.975Z,6.50
2018-03-31T17:01:58.005Z,5.70
2018-03-31T17:04:25.022Z,6.33
2018-03-31T17:06:52.042Z,5.80
2018-03-31T17:09:19.051Z,6.00
2018-03-31T17:11:46.075Z,5.37
2018-03-31T17:14:13.092Z,6.10
2018-03-31T17:16:40.134Z,6.63
2018-03-31T17:19:07.151Z,5.60
2018-03-31T17:21:34.946Z,6.20
2018-03-31T17:24:01.955Z,6.17
2018-03-31T17:26:28.978Z,5.83
2018-03-31T17:28:55.986Z,6.93
2018-03-31T17:31:23.007Z,5.77
2018-03-31T17:33:50.775Z,6.67
2018-03-31T17:36:18.567Z,5.77
2018-03-31T17:38:45.579Z,5.93
2018-03-31T17:41:13.371Z,6.27
2018-03-31T17:43:40.391Z,6.20
2018-03-31T17:46:08.184Z,6.73
2018-03-31T17:48:35.199Z,7.60
2018-03-31T17:51:02.996Z,8.13
2018-03-31T17:53:29.998Z,7.13
2018-03-31T17:55:57.026Z,6.37
2018-03-31T17:58:24.038Z,6.40
2018-03-31T18:00:51.047Z,8.00
2018-03-31T18:03:18.076Z,7.20
2018-03-31T18:05:45.083Z,6.50
2018-03-31T18:08:12.112Z,6.70
2018-03-31T18:10:39.119Z,7.20
2018-03-31T18:13:06.143Z,7.00
2018-03-31T18:15:33.153Z,11.50
2018-03-31T18:18:00.174Z,11.10
2018-03-31T18:20:27.951Z,13.87
2018-03-31T18:22:55.747Z,12.20
2018-03-31T18:25:22.764Z,10.03
2018-03-31T18:27:49.799Z,10.07
2018-03-31T18:30:17.579Z,16.80
2018-03-31T18:32:45.375Z,10.07
2018-03-31T18:35:12.380Z,8.27
2018-03-31T18:37:40.171Z,9.30
2018-03-31T18:40:07.179Z,11.57
2018-03-31T18:42:36.070Z,14.33
2018-03-31T18:45:03.852Z,11.30
2018-03-31T18:47:31.643Z,12.03
2018-03-31T18:49:58.655Z,15.00
2018-03-31T18:52:26.538Z,8.90
2018-03-31T18:54:53.554Z,9.57
2018-03-31T18:57:20.574Z,7.07
2018-03-31T18:59:47.581Z,7.30
2018-03-31T19:02:14.607Z,7.30
2018-03-31T19:04:42.382Z,7.53
2018-03-31T19:07:10.167Z,8.00
2018-03-31T19:09:37.175Z,7.10
2018-03-31T19:12:04.975Z,7.30
2018-03-31T19:14:31.986Z,7.90
2018-03-31T19:17:05.587Z,7.33
2018-03-31T19:19:33.362Z,7.70
2018-03-31T19:22:01.156Z,7.40
2018-03-31T19:24:28.164Z,7.30
2018-03-31T19:26:55.954Z,8.30
2018-03-31T19:29:22.962Z,8.40
2018-03-31T19:31:49.992Z,8.50
2018-03-31T19:34:17.016Z,7.53
2018-03-31T19:36:44.030Z,9.07
2018-03-31T19:39:11.802Z,8.93
2018-03-31T19:41:38.810Z,8.40
2018-03-31T19:44:05.847Z,9.57
2018-03-31T19:46:32.866Z,10.13
2018-03-31T19:48:59.891Z,9.43
2018-03-31T19:51:26.899Z,8.90
2018-03-31T19:53:53.924Z,9.40
2018-03-31T19:56:20.929Z,8.80
2018-03-31T19:58:47.964Z,8.97
2018-03-31T20:01:15.738Z,9.03
2018-03-31T20:03:42.758Z,11.63
2018-03-31T20:06:09.786Z,9.60
2018-03-31T20:08:36.814Z,9.00
2018-03-31T20:11:03.826Z,9.30
2018-03-31T20:13:30.854Z,8.60
2018-03-31T20:15:58.622Z,9.43
2018-03-31T20:18:26.411Z,9.37
2018-03-31T20:20:53.414Z,9.70
2018-03-31T20:23:21.203Z,9.57
2018-03-31T20:25:48.974Z,8.63
2018-03-31T20:28:16.006Z,10.00
2018-03-31T20:30:43.780Z,9.40
2018-03-31T20:33:11.655Z,10.23
2018-03-31T20:35:38.662Z,10.13
2018-03-31T20:38:05.746Z,9.97
2018-03-31T20:40:32.758Z,10.03
2018-03-31T20:42:59.791Z,11.27
2018-03-31T20:45:26.811Z,10.07
2018-03-31T20:47:53.840Z,10.20
2018-03-31T20:50:20.921Z,10.70
2018-03-31T20:52:47.927Z,9.60
2018-03-31T20:55:14.943Z,10.50
2018-03-31T20:57:41.974Z,11.20
2018-03-31T21:00:08.986Z,10.40
2018-03-31T21:02:36.013Z,10.50
2018-03-31T21:05:03.022Z,9.83
2018-03-31T21:07:30.102Z,9.80
2018-03-31T21:09:57.111Z,9.80
2018-03-31T21:12:24.123Z,10.03
2018-03-31T21:14:51.150Z,10.50
2018-03-31T21:17:18.154Z,9.00
2018-03-31T21:19:45.243Z,10.30
2018-03-31T21:22:12.260Z,10.00
2018-03-31T21:24:40.095Z,9.47
2018-03-31T21:27:07.112Z,10.30
2018-03-31T21:29:34.138Z,10.10
2018-03-31T21:32:01.906Z,10.20
2018-03-31T21:34:28.930Z,9.03
2018-03-31T21:36:56.703Z,9.80
2018-03-31T21:39:24.491Z,10.07
2018-03-31T21:41:51.503Z,10.53
2018-03-31T21:44:18.525Z,9.37
2018-03-31T21:46:45.535Z,9.10
2018-03-31T21:49:12.564Z,9.90
2018-03-31T21:51:39.578Z,9.90
2018-03-31T21:54:06.616Z,8.87
2018-03-31T21:56:33.633Z,9.40
2018-03-31T21:59:00.654Z,9.40
2018-03-31T22:01:27.663Z,9.10
2018-03-31T22:03:54.682Z,9.70
2018-03-31T22:06:21.686Z,9.63
2018-03-31T22:08:48.720Z,10.00
2018-03-31T22:11:16.498Z,9.57
2018-03-31T22:13:50.108Z,9.60
2018-03-31T22:16:17.111Z,9.60
2018-03-31T22:18:44.126Z,10.07
2018-03-31T22:21:11.127Z,9.67
2018-03-31T22:23:38.920Z,8.40
2018-03-31T22:26:05.930Z,9.17
2018-03-31T22:28:33.725Z,10.10
2018-03-31T22:31:00.726Z,9.40
2018-03-31T22:33:27.755Z,8.83
2018-03-31T22:35:54.771Z,9.40
2018-03-31T22:38:21.830Z,9.73
2018-03-31T22:40:48.835Z,8.90
2018-03-31T22:43:16.610Z,9.17
2018-03-31T22:45:44.395Z,8.80
2018-03-31T22:48:11.398Z,9.10
2018-03-31T22:50:39.196Z,8.53
2018-03-31T22:53:06.207Z,9.90
2018-03-31T22:55:33.235Z,9.03
2018-03-31T22:58:00.248Z,9.23
2018-03-31T23:00:27.276Z,8.70
2018-03-31T23:02:54.282Z,9.43
2018-03-31T23:07:51.082Z,9.60
2018-03-31T23:10:18.134Z,8.87
2018-03-31T23:12:45.139Z,9.33
2018-03-31T23:15:12.163Z,8.67
2018-03-31T23:17:39.167Z,9.37
2018-03-31T23:20:06.187Z,8.87
2018-03-31T23:22:33.190Z,8.83
2018-03-31T23:25:00.215Z,9.60
2018-03-31T23:27:27.231Z,9.43
2018-03-31T23:29:55.027Z,9.57
2018-03-31T23:32:22.389Z,9.20
2018-03-31T23:34:49.416Z,9.33
2018-03-31T23:37:16.423Z,9.93
2018-03-31T23:39:43.446Z,9.90
2018-03-31T23:42:10.467Z,10.27
2018-03-31T23:44:37.486Z,9.70
2018-03-31T23:47:05.258Z,9.70
2018-03-31T23:49:33.048Z,9.20
2018-03-31T23:52:00.055Z,8.90
2018-03-31T23:54:27.842Z,9.57
2018-03-31T23:56:54.854Z,9.23
2018-03-31T23:59:21.874Z,9.43
